sensor_id;sensor_type;location;lat;lon;timestamp;temperature;humidity
12089;DHT22;6107;49.078;8.578;2024-03-06T00:01:32;6.80;99.90
12089;DHT22;6107;49.078;8.578;2024-03-06T00:03:58;6.80;99.90
12089;DHT22;6107;49.078;8.578;2024-03-06T00:06:24;6.90;99.90
12089;DHT22;6107;49.078;8.578;2024-03-06T00:08:50;6.90;99.90
12089;DHT22;6107;49.078;8.578;2024-03-06T00:11:15;6.80;99.90
12089;DHT22;6107;49.078;8.578;2024-03-06T00:13:41;6.90;99.90
12089;DHT22;6107;49.078;8.578;2024-03-06T00:16:07;6.90;99.90
12089;DHT22;6107;49.078;8.578;2024-03-06T00:18:32;6.80;99.90
12089;DHT22;6107;49.078;8.578;2024-03-06T00:20:58;6.80;99.90
12089;DHT22;6107;49.078;8.578;2024-03-06T00:23:24;6.80;99.90
12089;DHT22;6107;49.078;8.578;2024-03-06T00:25:50;6.70;99.90
12089;DHT22;6107;49.078;8.578;2024-03-06T00:28:15;6.80;99.90
12089;DHT22;6107;49.078;8.578;2024-03-06T00:30:41;6.80;99.90
12089;DHT22;6107;49.078;8.578;2024-03-06T00:33:07;6.80;99.90
12089;DHT22;6107;49.078;8.578;2024-03-06T00:35:33;6.90;99.90
12089;DHT22;6107;49.078;8.578;2024-03-06T00:37:58;7.00;99.90
12089;DHT22;6107;49.078;8.578;2024-03-06T00:40:28;7.00;99.90
12089;DHT22;6107;49.078;8.578;2024-03-06T00:42:56;7.00;99.90
12089;DHT22;6107;49.078;8.578;2024-03-06T00:45:22;7.10;99.90
12089;DHT22;6107;49.078;8.578;2024-03-06T00:47:48;7.10;99.90
12089;DHT22;6107;49.078;8.578;2024-03-06T00:50:13;7.10;99.90
12089;DHT22;6107;49.078;8.578;2024-03-06T00:52:39;7.00;99.90
12089;DHT22;6107;49.078;8.578;2024-03-06T00:55:05;7.00;99.90
12089;DHT22;6107;49.078;8.578;2024-03-06T00:57:31;7.00;99.90
12089;DHT22;6107;49.078;8.578;2024-03-06T00:59:57;7.00;99.90
12089;DHT22;6107;49.078;8.578;2024-03-06T01:02:22;6.90;99.90
12089;DHT22;6107;49.078;8.578;2024-03-06T01:04:48;6.90;99.90
12089;DHT22;6107;49.078;8.578;2024-03-06T01:07:14;6.90;99.90
12089;DHT22;6107;49.078;8.578;2024-03-06T01:09:39;6.80;99.90
12089;DHT22;6107;49.078;8.578;2024-03-06T01:12:05;6.80;99.90
12089;DHT22;6107;49.078;8.578;2024-03-06T01:14:31;6.70;99.90
12089;DHT22;6107;49.078;8.578;2024-03-06T01:16:56;6.50;99.90
12089;DHT22;6107;49.078;8.578;2024-03-06T01:19:23;6.70;99.90
12089;DHT22;6107;49.078;8.578;2024-03-06T01:21:48;6.50;99.90
12089;DHT22;6107;49.078;8.578;2024-03-06T01:24:14;6.40;99.90
12089;DHT22;6107;49.078;8.578;2024-03-06T01:26:40;6.50;99.90
12089;DHT22;6107;49.078;8.578;2024-03-06T01:29:06;6.40;99.90
12089;DHT22;6107;49.078;8.578;2024-03-06T01:31:31;6.50;99.90
12089;DHT22;6107;49.078;8.578;2024-03-06T01:33:57;6.60;99.90
12089;DHT22;6107;49.078;8.578;2024-03-06T01:36:23;6.50;99.90
12089;DHT22;6107;49.078;8.578;2024-03-06T01:38:48;6.70;99.90
12089;DHT22;6107;49.078;8.578;2024-03-06T01:41:17;6.80;99.90
12089;DHT22;6107;49.078;8.578;2024-03-06T01:43:43;6.80;99.90
12089;DHT22;6107;49.078;8.578;2024-03-06T01:46:09;6.90;99.90
12089;DHT22;6107;49.078;8.578;2024-03-06T01:48:35;6.90;99.90
12089;DHT22;6107;49.078;8.578;2024-03-06T01:51:02;6.90;99.90
12089;DHT22;6107;49.078;8.578;2024-03-06T01:53:31;6.80;99.90
12089;DHT22;6107;49.078;8.578;2024-03-06T01:55:57;6.90;99.90
12089;DHT22;6107;49.078;8.578;2024-03-06T01:58:23;6.80;99.90
12089;DHT22;6107;49.078;8.578;2024-03-06T02:00:50;6.90;99.90
12089;DHT22;6107;49.078;8.578;2024-03-06T02:03:17;7.00;99.90
12089;DHT22;6107;49.078;8.578;2024-03-06T02:05:43;7.10;99.90
12089;DHT22;6107;49.078;8.578;2024-03-06T02:08:09;6.90;99.90
12089;DHT22;6107;49.078;8.578;2024-03-06T02:10:34;6.70;99.90
12089;DHT22;6107;49.078;8.578;2024-03-06T02:13:00;6.70;99.90
12089;DHT22;6107;49.078;8.578;2024-03-06T02:15:26;6.70;99.90
12089;DHT22;6107;49.078;8.578;2024-03-06T02:17:52;6.80;99.90
12089;DHT22;6107;49.078;8.578;2024-03-06T02:20:25;6.90;99.90
12089;DHT22;6107;49.078;8.578;2024-03-06T02:22:51;6.90;99.90
12089;DHT22;6107;49.078;8.578;2024-03-06T02:25:17;6.90;99.90
12089;DHT22;6107;49.078;8.578;2024-03-06T02:27:43;6.90;99.90
12089;DHT22;6107;49.078;8.578;2024-03-06T02:30:10;6.80;99.90
12089;DHT22;6107;49.078;8.578;2024-03-06T02:32:36;6.70;99.90
12089;DHT22;6107;49.078;8.578;2024-03-06T02:35:02;6.70;99.90
12089;DHT22;6107;49.078;8.578;2024-03-06T02:37:34;6.90;99.90
12089;DHT22;6107;49.078;8.578;2024-03-06T02:39:59;6.80;99.90
12089;DHT22;6107;49.078;8.578;2024-03-06T02:42:27;6.90;99.90
12089;DHT22;6107;49.078;8.578;2024-03-06T02:44:53;6.90;99.90
12089;DHT22;6107;49.078;8.578;2024-03-06T02:47:19;6.90;99.90
12089;DHT22;6107;49.078;8.578;2024-03-06T02:49:44;6.80;99.90
12089;DHT22;6107;49.078;8.578;2024-03-06T02:52:10;6.90;99.90
12089;DHT22;6107;49.078;8.578;2024-03-06T02:54:36;6.80;99.90
12089;DHT22;6107;49.078;8.578;2024-03-06T02:57:01;6.90;99.90
12089;DHT22;6107;49.078;8.578;2024-03-06T02:59:27;6.90;99.90
12089;DHT22;6107;49.078;8.578;2024-03-06T03:01:52;6.60;99.90
12089;DHT22;6107;49.078;8.578;2024-03-06T03:04:18;6.30;99.90
12089;DHT22;6107;49.078;8.578;2024-03-06T03:06:44;6.50;99.90
12089;DHT22;6107;49.078;8.578;2024-03-06T03:09:09;6.30;99.90
12089;DHT22;6107;49.078;8.578;2024-03-06T03:11:37;6.50;99.90
12089;DHT22;6107;49.078;8.578;2024-03-06T03:14:03;6.70;99.90
12089;DHT22;6107;49.078;8.578;2024-03-06T03:16:29;6.70;99.90
12089;DHT22;6107;49.078;8.578;2024-03-06T03:18:55;6.20;99.90
12089;DHT22;6107;49.078;8.578;2024-03-06T03:23:47;6.00;99.90
12089;DHT22;6107;49.078;8.578;2024-03-06T03:26:12;6.20;99.90
12089;DHT22;6107;49.078;8.578;2024-03-06T03:28:38;6.10;99.90
12089;DHT22;6107;49.078;8.578;2024-03-06T03:31:08;6.10;99.90
12089;DHT22;6107;49.078;8.578;2024-03-06T03:33:41;6.20;99.90
12089;DHT22;6107;49.078;8.578;2024-03-06T03:36:07;6.00;99.90
12089;DHT22;6107;49.078;8.578;2024-03-06T03:38:33;5.90;99.90
12089;DHT22;6107;49.078;8.578;2024-03-06T03:41:02;6.20;99.90
12089;DHT22;6107;49.078;8.578;2024-03-06T03:43:29;6.20;99.90
12089;DHT22;6107;49.078;8.578;2024-03-06T03:45:55;6.20;99.90
12089;DHT22;6107;49.078;8.578;2024-03-06T03:48:21;6.40;99.90
12089;DHT22;6107;49.078;8.578;2024-03-06T03:50:46;6.40;99.90
12089;DHT22;6107;49.078;8.578;2024-03-06T03:53:12;6.50;99.90
12089;DHT22;6107;49.078;8.578;2024-03-06T03:55:38;6.50;99.90
12089;DHT22;6107;49.078;8.578;2024-03-06T03:58:03;6.30;99.90
12089;DHT22;6107;49.078;8.578;2024-03-06T04:00:29;6.30;99.90
12089;DHT22;6107;49.078;8.578;2024-03-06T04:02:56;6.10;99.90
12089;DHT22;6107;49.078;8.578;2024-03-06T04:05:22;5.80;99.90
12089;DHT22;6107;49.078;8.578;2024-03-06T04:07:48;5.90;99.90
12089;DHT22;6107;49.078;8.578;2024-03-06T04:10:14;5.70;99.90
12089;DHT22;6107;49.078;8.578;2024-03-06T04:12:41;5.80;99.90
12089;DHT22;6107;49.078;8.578;2024-03-06T04:15:07;5.80;99.90
12089;DHT22;6107;49.078;8.578;2024-03-06T04:17:34;5.70;99.90
12089;DHT22;6107;49.078;8.578;2024-03-06T04:20:00;5.70;99.90
12089;DHT22;6107;49.078;8.578;2024-03-06T04:22:26;5.60;99.90
12089;DHT22;6107;49.078;8.578;2024-03-06T04:24:52;5.50;99.90
12089;DHT22;6107;49.078;8.578;2024-03-06T04:27:17;5.50;99.90
12089;DHT22;6107;49.078;8.578;2024-03-06T04:29:43;5.50;99.90
12089;DHT22;6107;49.078;8.578;2024-03-06T04:32:08;5.60;99.90
12089;DHT22;6107;49.078;8.578;2024-03-06T04:34:34;5.80;99.90
12089;DHT22;6107;49.078;8.578;2024-03-06T04:37:01;5.80;99.90
12089;DHT22;6107;49.078;8.578;2024-03-06T04:39:27;5.80;99.90
12089;DHT22;6107;49.078;8.578;2024-03-06T04:41:52;6.10;99.90
12089;DHT22;6107;49.078;8.578;2024-03-06T04:44:18;6.00;99.90
12089;DHT22;6107;49.078;8.578;2024-03-06T04:46:43;5.50;99.90
12089;DHT22;6107;49.078;8.578;2024-03-06T04:49:09;5.60;99.90
12089;DHT22;6107;49.078;8.578;2024-03-06T04:51:35;5.60;99.90
12089;DHT22;6107;49.078;8.578;2024-03-06T04:54:00;5.60;99.90
12089;DHT22;6107;49.078;8.578;2024-03-06T04:56:26;5.60;99.90
12089;DHT22;6107;49.078;8.578;2024-03-06T04:58:51;5.70;99.90
12089;DHT22;6107;49.078;8.578;2024-03-06T05:01:17;5.90;99.90
12089;DHT22;6107;49.078;8.578;2024-03-06T05:03:43;5.40;99.90
12089;DHT22;6107;49.078;8.578;2024-03-06T05:06:09;5.30;99.90
12089;DHT22;6107;49.078;8.578;2024-03-06T05:08:34;5.40;99.90
12089;DHT22;6107;49.078;8.578;2024-03-06T05:11:00;5.50;99.90
12089;DHT22;6107;49.078;8.578;2024-03-06T05:13:26;5.40;99.90
12089;DHT22;6107;49.078;8.578;2024-03-06T05:15:52;5.50;99.90
12089;DHT22;6107;49.078;8.578;2024-03-06T05:18:19;5.40;99.90
12089;DHT22;6107;49.078;8.578;2024-03-06T05:20:45;5.40;99.90
12089;DHT22;6107;49.078;8.578;2024-03-06T05:23:11;5.50;99.90
12089;DHT22;6107;49.078;8.578;2024-03-06T05:25:38;5.60;99.90
12089;DHT22;6107;49.078;8.578;2024-03-06T05:28:04;5.70;99.90
12089;DHT22;6107;49.078;8.578;2024-03-06T05:30:29;5.80;99.90
12089;DHT22;6107;49.078;8.578;2024-03-06T05:32:55;5.70;99.90
12089;DHT22;6107;49.078;8.578;2024-03-06T05:35:21;5.50;99.90
12089;DHT22;6107;49.078;8.578;2024-03-06T05:37:47;5.60;99.90
12089;DHT22;6107;49.078;8.578;2024-03-06T05:40:12;5.50;99.90
12089;DHT22;6107;49.078;8.578;2024-03-06T05:42:38;5.60;99.90
12089;DHT22;6107;49.078;8.578;2024-03-06T05:45:04;5.50;99.90
12089;DHT22;6107;49.078;8.578;2024-03-06T05:47:36;5.60;99.90
12089;DHT22;6107;49.078;8.578;2024-03-06T05:50:02;5.40;99.90
12089;DHT22;6107;49.078;8.578;2024-03-06T05:52:31;5.30;99.90
12089;DHT22;6107;49.078;8.578;2024-03-06T05:54:57;5.40;99.90
12089;DHT22;6107;49.078;8.578;2024-03-06T05:57:22;5.60;99.90
12089;DHT22;6107;49.078;8.578;2024-03-06T05:59:48;5.90;99.90
12089;DHT22;6107;49.078;8.578;2024-03-06T06:02:13;5.70;99.90
12089;DHT22;6107;49.078;8.578;2024-03-06T06:04:42;5.70;99.90
12089;DHT22;6107;49.078;8.578;2024-03-06T06:07:07;5.70;99.90
12089;DHT22;6107;49.078;8.578;2024-03-06T06:09:33;5.70;99.90
12089;DHT22;6107;49.078;8.578;2024-03-06T06:11:59;5.90;99.90
12089;DHT22;6107;49.078;8.578;2024-03-06T06:14:25;6.00;99.90
12089;DHT22;6107;49.078;8.578;2024-03-06T06:16:52;6.10;99.90
12089;DHT22;6107;49.078;8.578;2024-03-06T06:19:18;6.20;99.90
12089;DHT22;6107;49.078;8.578;2024-03-06T06:21:44;6.30;99.90
12089;DHT22;6107;49.078;8.578;2024-03-06T06:24:09;6.40;99.90
12089;DHT22;6107;49.078;8.578;2024-03-06T06:26:35;6.30;99.90
12089;DHT22;6107;49.078;8.578;2024-03-06T06:29:00;6.40;99.90
12089;DHT22;6107;49.078;8.578;2024-03-06T06:31:26;6.40;99.90
12089;DHT22;6107;49.078;8.578;2024-03-06T06:33:53;6.40;99.90
12089;DHT22;6107;49.078;8.578;2024-03-06T06:36:18;6.30;99.90
12089;DHT22;6107;49.078;8.578;2024-03-06T06:38:45;6.40;99.90
12089;DHT22;6107;49.078;8.578;2024-03-06T06:41:11;6.40;99.90
12089;DHT22;6107;49.078;8.578;2024-03-06T06:43:37;6.40;99.90
12089;DHT22;6107;49.078;8.578;2024-03-06T06:46:02;6.50;99.90
12089;DHT22;6107;49.078;8.578;2024-03-06T06:48:30;6.60;99.90
12089;DHT22;6107;49.078;8.578;2024-03-06T06:50:56;6.70;99.90
12089;DHT22;6107;49.078;8.578;2024-03-06T06:53:21;6.70;99.90
12089;DHT22;6107;49.078;8.578;2024-03-06T06:55:47;6.60;99.90
12089;DHT22;6107;49.078;8.578;2024-03-06T06:58:12;6.70;99.90
12089;DHT22;6107;49.078;8.578;2024-03-06T07:00:38;6.80;99.90
12089;DHT22;6107;49.078;8.578;2024-03-06T07:03:04;6.70;99.90
12089;DHT22;6107;49.078;8.578;2024-03-06T07:05:29;6.80;99.90
12089;DHT22;6107;49.078;8.578;2024-03-06T07:07:55;6.80;99.90
12089;DHT22;6107;49.078;8.578;2024-03-06T07:10:21;6.70;99.90
12089;DHT22;6107;49.078;8.578;2024-03-06T07:12:47;6.80;99.90
12089;DHT22;6107;49.078;8.578;2024-03-06T07:15:12;6.90;99.90
12089;DHT22;6107;49.078;8.578;2024-03-06T07:17:38;6.80;99.90
12089;DHT22;6107;49.078;8.578;2024-03-06T07:20:04;6.70;99.90
12089;DHT22;6107;49.078;8.578;2024-03-06T07:22:34;6.80;99.90
12089;DHT22;6107;49.078;8.578;2024-03-06T07:25:00;6.90;99.90
12089;DHT22;6107;49.078;8.578;2024-03-06T07:27:27;7.30;99.90
12089;DHT22;6107;49.078;8.578;2024-03-06T07:29:53;7.00;99.90
12089;DHT22;6107;49.078;8.578;2024-03-06T07:32:19;7.00;99.90
12089;DHT22;6107;49.078;8.578;2024-03-06T07:34:45;7.10;99.90
12089;DHT22;6107;49.078;8.578;2024-03-06T07:37:10;7.20;99.90
12089;DHT22;6107;49.078;8.578;2024-03-06T07:39:37;7.10;99.90
12089;DHT22;6107;49.078;8.578;2024-03-06T07:42:02;7.30;99.90
12089;DHT22;6107;49.078;8.578;2024-03-06T07:44:28;7.30;99.90
12089;DHT22;6107;49.078;8.578;2024-03-06T07:46:54;7.20;99.90
12089;DHT22;6107;49.078;8.578;2024-03-06T07:49:20;7.30;99.90
12089;DHT22;6107;49.078;8.578;2024-03-06T07:51:47;7.10;99.90
12089;DHT22;6107;49.078;8.578;2024-03-06T07:54:13;7.00;99.90
12089;DHT22;6107;49.078;8.578;2024-03-06T07:56:38;7.00;99.90
12089;DHT22;6107;49.078;8.578;2024-03-06T07:59:04;7.10;99.90
12089;DHT22;6107;49.078;8.578;2024-03-06T08:01:32;7.20;99.90
12089;DHT22;6107;49.078;8.578;2024-03-06T08:03:58;7.30;99.90
12089;DHT22;6107;49.078;8.578;2024-03-06T08:06:24;7.50;99.90
12089;DHT22;6107;49.078;8.578;2024-03-06T08:08:50;7.40;99.90
12089;DHT22;6107;49.078;8.578;2024-03-06T08:11:17;7.60;99.90
12089;DHT22;6107;49.078;8.578;2024-03-06T08:13:43;7.60;99.90
12089;DHT22;6107;49.078;8.578;2024-03-06T08:16:09;7.70;99.90
12089;DHT22;6107;49.078;8.578;2024-03-06T08:18:36;7.70;99.90
12089;DHT22;6107;49.078;8.578;2024-03-06T08:21:02;7.60;99.90
12089;DHT22;6107;49.078;8.578;2024-03-06T08:23:32;7.70;99.90
12089;DHT22;6107;49.078;8.578;2024-03-06T08:25:58;7.70;99.90
12089;DHT22;6107;49.078;8.578;2024-03-06T08:28:25;7.50;99.90
12089;DHT22;6107;49.078;8.578;2024-03-06T08:30:51;7.40;99.90
12089;DHT22;6107;49.078;8.578;2024-03-06T08:33:17;7.40;99.90
12089;DHT22;6107;49.078;8.578;2024-03-06T08:35:43;7.20;99.90
12089;DHT22;6107;49.078;8.578;2024-03-06T08:38:09;7.20;99.90
12089;DHT22;6107;49.078;8.578;2024-03-06T08:40:35;7.40;99.90
12089;DHT22;6107;49.078;8.578;2024-03-06T08:45:26;7.60;99.90
12089;DHT22;6107;49.078;8.578;2024-03-06T08:47:52;7.60;99.90
12089;DHT22;6107;49.078;8.578;2024-03-06T08:50:19;7.50;99.90
12089;DHT22;6107;49.078;8.578;2024-03-06T08:52:45;7.60;99.90
12089;DHT22;6107;49.078;8.578;2024-03-06T08:55:11;7.50;99.90
12089;DHT22;6107;49.078;8.578;2024-03-06T08:57:37;7.60;99.90
12089;DHT22;6107;49.078;8.578;2024-03-06T09:00:04;7.70;99.90
12089;DHT22;6107;49.078;8.578;2024-03-06T09:02:34;7.70;99.90
12089;DHT22;6107;49.078;8.578;2024-03-06T09:04:59;7.70;99.90
12089;DHT22;6107;49.078;8.578;2024-03-06T09:07:25;7.80;99.90
12089;DHT22;6107;49.078;8.578;2024-03-06T09:09:51;7.90;99.90
12089;DHT22;6107;49.078;8.578;2024-03-06T09:12:20;7.90;99.90
12089;DHT22;6107;49.078;8.578;2024-03-06T09:14:46;8.00;99.90
12089;DHT22;6107;49.078;8.578;2024-03-06T09:17:11;8.20;99.90
12089;DHT22;6107;49.078;8.578;2024-03-06T09:22:06;10.40;99.90
12089;DHT22;6107;49.078;8.578;2024-03-06T09:24:33;9.30;99.90
12089;DHT22;6107;49.078;8.578;2024-03-06T09:27:01;8.90;99.90
12089;DHT22;6107;49.078;8.578;2024-03-06T09:29:26;8.60;99.90
12089;DHT22;6107;49.078;8.578;2024-03-06T09:31:52;8.40;99.90
12089;DHT22;6107;49.078;8.578;2024-03-06T09:34:18;8.20;99.90
12089;DHT22;6107;49.078;8.578;2024-03-06T09:36:48;8.30;99.90
12089;DHT22;6107;49.078;8.578;2024-03-06T09:39:15;8.30;99.90
12089;DHT22;6107;49.078;8.578;2024-03-06T09:41:51;8.20;99.90
12089;DHT22;6107;49.078;8.578;2024-03-06T09:44:18;8.20;99.90
12089;DHT22;6107;49.078;8.578;2024-03-06T09:46:48;8.10;99.90
12089;DHT22;6107;49.078;8.578;2024-03-06T09:49:16;8.20;99.90
12089;DHT22;6107;49.078;8.578;2024-03-06T09:51:44;8.30;99.90
12089;DHT22;6107;49.078;8.578;2024-03-06T09:54:14;8.40;99.90
12089;DHT22;6107;49.078;8.578;2024-03-06T09:56:44;8.30;99.90
12089;DHT22;6107;49.078;8.578;2024-03-06T09:59:14;8.60;99.90
12089;DHT22;6107;49.078;8.578;2024-03-06T10:01:53;8.30;99.90
12089;DHT22;6107;49.078;8.578;2024-03-06T10:04:20;8.30;99.90
12089;DHT22;6107;49.078;8.578;2024-03-06T10:06:46;8.30;99.90
12089;DHT22;6107;49.078;8.578;2024-03-06T10:09:12;8.30;99.90
12089;DHT22;6107;49.078;8.578;2024-03-06T10:11:41;8.10;99.90
12089;DHT22;6107;49.078;8.578;2024-03-06T10:16:35;8.10;99.90
12089;DHT22;6107;49.078;8.578;2024-03-06T10:21:47;8.40;99.90
12089;DHT22;6107;49.078;8.578;2024-03-06T10:24:21;8.40;99.90
12089;DHT22;6107;49.078;8.578;2024-03-06T10:26:49;8.60;99.90
12089;DHT22;6107;49.078;8.578;2024-03-06T10:29:17;8.60;99.90
12089;DHT22;6107;49.078;8.578;2024-03-06T10:34:18;8.20;99.90
12089;DHT22;6107;49.078;8.578;2024-03-06T10:36:45;8.20;99.90
12089;DHT22;6107;49.078;8.578;2024-03-06T10:39:12;8.20;99.90
12089;DHT22;6107;49.078;8.578;2024-03-06T10:41:40;8.30;99.90
12089;DHT22;6107;49.078;8.578;2024-03-06T10:44:13;9.00;99.90
12089;DHT22;6107;49.078;8.578;2024-03-06T10:46:43;8.70;99.90
12089;DHT22;6107;49.078;8.578;2024-03-06T10:49:10;8.50;99.90
12089;DHT22;6107;49.078;8.578;2024-03-06T10:51:40;8.40;99.90
12089;DHT22;6107;49.078;8.578;2024-03-06T10:54:09;8.50;99.90
12089;DHT22;6107;49.078;8.578;2024-03-06T10:56:38;8.60;99.90
12089;DHT22;6107;49.078;8.578;2024-03-06T10:59:05;8.60;99.90
12089;DHT22;6107;49.078;8.578;2024-03-06T11:01:32;8.40;99.90
12089;DHT22;6107;49.078;8.578;2024-03-06T11:04:00;8.40;99.90
12089;DHT22;6107;49.078;8.578;2024-03-06T11:06:26;8.40;99.90
12089;DHT22;6107;49.078;8.578;2024-03-06T11:08:52;8.50;99.90
12089;DHT22;6107;49.078;8.578;2024-03-06T11:11:24;9.50;99.90
12089;DHT22;6107;49.078;8.578;2024-03-06T11:13:54;8.90;99.90
12089;DHT22;6107;49.078;8.578;2024-03-06T11:16:27;8.70;99.90
12089;DHT22;6107;49.078;8.578;2024-03-06T11:19:08;8.60;99.90
12089;DHT22;6107;49.078;8.578;2024-03-06T11:21:34;8.70;99.90
12089;DHT22;6107;49.078;8.578;2024-03-06T11:24:20;8.70;99.90
12089;DHT22;6107;49.078;8.578;2024-03-06T11:26:47;8.80;99.90
12089;DHT22;6107;49.078;8.578;2024-03-06T11:29:16;8.90;99.90
12089;DHT22;6107;49.078;8.578;2024-03-06T11:32:03;8.90;99.90
12089;DHT22;6107;49.078;8.578;2024-03-06T11:34:29;8.80;99.90
12089;DHT22;6107;49.078;8.578;2024-03-06T11:36:59;8.90;99.90
12089;DHT22;6107;49.078;8.578;2024-03-06T11:39:29;9.00;99.90
12089;DHT22;6107;49.078;8.578;2024-03-06T11:41:56;8.80;99.90
12089;DHT22;6107;49.078;8.578;2024-03-06T11:44:22;8.90;99.90
12089;DHT22;6107;49.078;8.578;2024-03-06T11:46:50;9.00;99.90
12089;DHT22;6107;49.078;8.578;2024-03-06T11:49:23;9.00;99.90
12089;DHT22;6107;49.078;8.578;2024-03-06T11:51:52;8.90;99.90
12089;DHT22;6107;49.078;8.578;2024-03-06T11:54:18;9.10;99.90
12089;DHT22;6107;49.078;8.578;2024-03-06T11:56:49;9.20;99.90
12089;DHT22;6107;49.078;8.578;2024-03-06T11:59:23;9.20;99.90
12089;DHT22;6107;49.078;8.578;2024-03-06T12:01:51;9.20;99.90
12089;DHT22;6107;49.078;8.578;2024-03-06T12:04:18;9.30;99.90
12089;DHT22;6107;49.078;8.578;2024-03-06T12:06:43;9.20;99.90
12089;DHT22;6107;49.078;8.578;2024-03-06T12:09:09;9.20;99.90
12089;DHT22;6107;49.078;8.578;2024-03-06T12:11:37;9.20;99.90
12089;DHT22;6107;49.078;8.578;2024-03-06T12:14:03;9.10;99.90
12089;DHT22;6107;49.078;8.578;2024-03-06T12:16:28;9.10;99.90
12089;DHT22;6107;49.078;8.578;2024-03-06T12:18:58;9.10;99.90
12089;DHT22;6107;49.078;8.578;2024-03-06T12:21:33;9.20;99.90
12089;DHT22;6107;49.078;8.578;2024-03-06T12:24:07;9.20;99.90
12089;DHT22;6107;49.078;8.578;2024-03-06T12:26:32;9.30;99.90
12089;DHT22;6107;49.078;8.578;2024-03-06T12:31:31;9.20;99.90
12089;DHT22;6107;49.078;8.578;2024-03-06T12:33:57;9.30;99.90
12089;DHT22;6107;49.078;8.578;2024-03-06T12:36:25;9.30;99.90
12089;DHT22;6107;49.078;8.578;2024-03-06T12:39:02;9.40;99.90
12089;DHT22;6107;49.078;8.578;2024-03-06T12:41:28;9.50;99.90
12089;DHT22;6107;49.078;8.578;2024-03-06T12:43:55;9.50;99.90
12089;DHT22;6107;49.078;8.578;2024-03-06T12:46:22;9.50;99.90
12089;DHT22;6107;49.078;8.578;2024-03-06T12:48:48;9.60;99.90
12089;DHT22;6107;49.078;8.578;2024-03-06T12:51:13;9.60;99.90
12089;DHT22;6107;49.078;8.578;2024-03-06T12:53:39;10.10;99.90
12089;DHT22;6107;49.078;8.578;2024-03-06T12:56:05;10.00;99.90
12089;DHT22;6107;49.078;8.578;2024-03-06T12:58:31;9.90;99.90
12089;DHT22;6107;49.078;8.578;2024-03-06T13:00:57;10.00;99.90
12089;DHT22;6107;49.078;8.578;2024-03-06T13:03:24;10.00;99.90
12089;DHT22;6107;49.078;8.578;2024-03-06T13:05:49;9.80;99.90
12089;DHT22;6107;49.078;8.578;2024-03-06T13:08:15;9.70;99.90
12089;DHT22;6107;49.078;8.578;2024-03-06T13:10:42;9.70;99.90
12089;DHT22;6107;49.078;8.578;2024-03-06T13:13:08;9.60;99.90
12089;DHT22;6107;49.078;8.578;2024-03-06T13:15:34;9.70;99.90
12089;DHT22;6107;49.078;8.578;2024-03-06T13:18:00;9.60;99.90
12089;DHT22;6107;49.078;8.578;2024-03-06T13:20:29;9.40;99.90
12089;DHT22;6107;49.078;8.578;2024-03-06T13:22:55;9.50;99.90
12089;DHT22;6107;49.078;8.578;2024-03-06T13:25:21;9.30;99.90
12089;DHT22;6107;49.078;8.578;2024-03-06T13:27:46;9.30;99.90
12089;DHT22;6107;49.078;8.578;2024-03-06T13:30:12;9.10;99.90
12089;DHT22;6107;49.078;8.578;2024-03-06T13:32:38;9.40;99.90
12089;DHT22;6107;49.078;8.578;2024-03-06T13:35:04;9.40;99.90
12089;DHT22;6107;49.078;8.578;2024-03-06T13:37:32;9.20;99.90
12089;DHT22;6107;49.078;8.578;2024-03-06T13:39:58;9.20;99.90
12089;DHT22;6107;49.078;8.578;2024-03-06T13:42:28;9.30;99.90
12089;DHT22;6107;49.078;8.578;2024-03-06T13:44:54;9.40;99.90
12089;DHT22;6107;49.078;8.578;2024-03-06T13:47:19;9.50;99.90
12089;DHT22;6107;49.078;8.578;2024-03-06T13:49:45;9.40;99.90
12089;DHT22;6107;49.078;8.578;2024-03-06T13:52:10;9.40;99.90
12089;DHT22;6107;49.078;8.578;2024-03-06T13:54:39;9.40;99.90
12089;DHT22;6107;49.078;8.578;2024-03-06T13:57:11;9.50;99.90
12089;DHT22;6107;49.078;8.578;2024-03-06T13:59:36;9.20;99.90
12089;DHT22;6107;49.078;8.578;2024-03-06T14:02:06;9.20;99.90
12089;DHT22;6107;49.078;8.578;2024-03-06T14:04:32;9.10;99.90
12089;DHT22;6107;49.078;8.578;2024-03-06T14:06:57;9.30;99.90
12089;DHT22;6107;49.078;8.578;2024-03-06T14:09:24;9.30;99.90
12089;DHT22;6107;49.078;8.578;2024-03-06T14:11:53;9.20;99.90
12089;DHT22;6107;49.078;8.578;2024-03-06T14:14:19;9.30;99.90
12089;DHT22;6107;49.078;8.578;2024-03-06T14:16:45;9.30;99.90
12089;DHT22;6107;49.078;8.578;2024-03-06T14:19:11;9.30;99.90
12089;DHT22;6107;49.078;8.578;2024-03-06T14:21:37;9.20;99.90
12089;DHT22;6107;49.078;8.578;2024-03-06T14:24:03;9.20;99.90
12089;DHT22;6107;49.078;8.578;2024-03-06T14:26:31;9.20;99.90
12089;DHT22;6107;49.078;8.578;2024-03-06T14:29:01;9.20;99.90
12089;DHT22;6107;49.078;8.578;2024-03-06T14:31:28;9.10;99.90
12089;DHT22;6107;49.078;8.578;2024-03-06T14:33:54;9.10;99.90
12089;DHT22;6107;49.078;8.578;2024-03-06T14:36:19;9.20;99.90
12089;DHT22;6107;49.078;8.578;2024-03-06T14:38:47;9.10;99.90
12089;DHT22;6107;49.078;8.578;2024-03-06T14:41:13;9.00;99.90
12089;DHT22;6107;49.078;8.578;2024-03-06T14:43:39;9.10;99.90
12089;DHT22;6107;49.078;8.578;2024-03-06T14:46:05;9.10;99.90
12089;DHT22;6107;49.078;8.578;2024-03-06T14:48:32;9.20;99.90
12089;DHT22;6107;49.078;8.578;2024-03-06T14:50:57;10.30;99.90
12089;DHT22;6107;49.078;8.578;2024-03-06T14:53:23;9.70;99.90
12089;DHT22;6107;49.078;8.578;2024-03-06T14:55:48;9.30;99.90
12089;DHT22;6107;49.078;8.578;2024-03-06T14:58:15;9.00;99.90
12089;DHT22;6107;49.078;8.578;2024-03-06T15:00:40;9.10;99.90
12089;DHT22;6107;49.078;8.578;2024-03-06T15:03:06;9.00;99.90
12089;DHT22;6107;49.078;8.578;2024-03-06T15:05:33;9.00;99.90
12089;DHT22;6107;49.078;8.578;2024-03-06T15:07:59;9.10;99.90
12089;DHT22;6107;49.078;8.578;2024-03-06T15:10:25;9.10;99.90
12089;DHT22;6107;49.078;8.578;2024-03-06T15:12:51;9.00;99.90
12089;DHT22;6107;49.078;8.578;2024-03-06T15:15:16;8.90;99.90
12089;DHT22;6107;49.078;8.578;2024-03-06T15:17:42;8.90;99.90
12089;DHT22;6107;49.078;8.578;2024-03-06T15:20:08;9.80;99.90
12089;DHT22;6107;49.078;8.578;2024-03-06T15:22:37;9.10;99.90
12089;DHT22;6107;49.078;8.578;2024-03-06T15:25:10;9.00;99.90
12089;DHT22;6107;49.078;8.578;2024-03-06T15:27:40;9.00;99.90
12089;DHT22;6107;49.078;8.578;2024-03-06T15:30:07;9.10;99.90
12089;DHT22;6107;49.078;8.578;2024-03-06T15:32:34;9.00;99.90
12089;DHT22;6107;49.078;8.578;2024-03-06T15:35:00;8.90;99.90
12089;DHT22;6107;49.078;8.578;2024-03-06T15:37:26;8.80;99.90
12089;DHT22;6107;49.078;8.578;2024-03-06T15:39:52;8.80;99.90
12089;DHT22;6107;49.078;8.578;2024-03-06T15:42:18;8.90;99.90
12089;DHT22;6107;49.078;8.578;2024-03-06T15:44:44;9.00;99.90
12089;DHT22;6107;49.078;8.578;2024-03-06T15:47:09;9.00;99.90
12089;DHT22;6107;49.078;8.578;2024-03-06T15:49:35;9.00;99.90
12089;DHT22;6107;49.078;8.578;2024-03-06T15:52:01;9.10;99.90
12089;DHT22;6107;49.078;8.578;2024-03-06T15:54:26;9.20;99.90
12089;DHT22;6107;49.078;8.578;2024-03-06T15:56:52;9.20;99.90
12089;DHT22;6107;49.078;8.578;2024-03-06T15:59:17;9.10;99.90
12089;DHT22;6107;49.078;8.578;2024-03-06T16:01:43;9.20;99.90
12089;DHT22;6107;49.078;8.578;2024-03-06T16:04:10;9.00;99.90
12089;DHT22;6107;49.078;8.578;2024-03-06T16:06:35;9.10;99.90
12089;DHT22;6107;49.078;8.578;2024-03-06T16:09:01;9.20;99.90
12089;DHT22;6107;49.078;8.578;2024-03-06T16:11:27;9.10;99.90
12089;DHT22;6107;49.078;8.578;2024-03-06T16:13:54;9.10;99.90
12089;DHT22;6107;49.078;8.578;2024-03-06T16:16:25;9.00;99.90